createdAt,value
2017-10-23T00:00:31.107Z,1008.88
2017-10-23T00:01:31.110Z,1008.90
2017-10-23T00:02:31.109Z,1008.88
2017-10-23T00:03:31.110Z,1008.91
2017-10-23T00:04:31.112Z,1008.85
2017-10-23T00:05:31.110Z,1008.85
2017-10-23T00:06:31.110Z,1008.86
2017-10-23T00:07:31.118Z,1008.86
2017-10-23T00:08:31.110Z,1008.85
2017-10-23T00:09:31.114Z,1008.85
2017-10-23T00:10:31.117Z,1008.84
2017-10-23T00:11:31.119Z,1008.88
2017-10-23T00:12:31.119Z,1008.83
2017-10-23T00:13:31.124Z,1008.88
2017-10-23T00:14:31.119Z,1008.87
2017-10-23T00:15:31.120Z,1008.81
2017-10-23T00:16:31.129Z,1008.82
2017-10-23T00:17:31.137Z,1008.83
2017-10-23T00:18:31.124Z,1008.85
2017-10-23T00:19:31.125Z,1008.81
2017-10-23T00:20:31.125Z,1008.78
2017-10-23T00:21:31.134Z,1008.82
2017-10-23T00:22:31.132Z,1008.78
2017-10-23T00:23:31.131Z,1008.79
2017-10-23T00:24:31.132Z,1008.80
2017-10-23T00:25:31.129Z,1008.80
2017-10-23T00:26:31.133Z,1008.75
2017-10-23T00:27:31.133Z,1008.80
2017-10-23T00:28:31.136Z,1008.78
2017-10-23T00:29:31.150Z,1008.76
2017-10-23T00:30:31.139Z,1008.79
2017-10-23T00:31:31.141Z,1008.78
2017-10-23T00:32:31.141Z,1008.76
2017-10-23T00:33:31.142Z,1008.79
2017-10-23T00:34:31.141Z,1008.77
2017-10-23T00:35:31.152Z,1008.78
2017-10-23T00:36:31.145Z,1008.80
2017-10-23T00:37:31.148Z,1008.80
2017-10-23T00:38:31.149Z,1008.77
2017-10-23T00:39:31.153Z,1008.77
2017-10-23T00:40:31.151Z,1008.80
2017-10-23T00:41:31.165Z,1008.74
2017-10-23T00:42:31.152Z,1008.76
2017-10-23T00:43:31.161Z,1008.74
2017-10-23T00:44:31.162Z,1008.68
2017-10-23T00:45:31.160Z,1008.71
2017-10-23T00:46:31.157Z,1008.67
2017-10-23T00:47:31.160Z,1008.70
2017-10-23T00:48:31.159Z,1008.66
2017-10-23T00:49:31.160Z,1008.68
2017-10-23T00:50:31.167Z,1008.66
2017-10-23T00:51:31.170Z,1008.63
2017-10-23T00:52:31.162Z,1008.64
2017-10-23T00:53:31.168Z,1008.65
2017-10-23T00:54:31.168Z,1008.63
2017-10-23T00:55:31.169Z,1008.62
2017-10-23T00:56:31.171Z,1008.62
2017-10-23T00:57:31.171Z,1008.65
2017-10-23T00:58:31.172Z,1008.67
2017-10-23T00:59:31.175Z,1008.68
2017-10-23T01:00:31.176Z,1008.62
2017-10-23T01:01:31.174Z,1008.67
2017-10-23T01:02:31.183Z,1008.65
2017-10-23T01:03:31.176Z,1008.65
2017-10-23T01:04:31.186Z,1008.62
2017-10-23T01:05:31.184Z,1008.63
2017-10-23T01:06:31.195Z,1008.63
2017-10-23T01:07:31.182Z,1008.63
2017-10-23T01:08:31.188Z,1008.67
2017-10-23T01:09:31.191Z,1008.63
2017-10-23T01:10:31.188Z,1008.63
2017-10-23T01:11:31.189Z,1008.63
2017-10-23T01:12:31.193Z,1008.61
2017-10-23T01:13:31.195Z,1008.62
2017-10-23T01:14:31.205Z,1008.61
2017-10-23T01:15:31.192Z,1008.63
2017-10-23T01:16:31.193Z,1008.62
2017-10-23T01:17:31.197Z,1008.60
2017-10-23T01:18:31.206Z,1008.56
2017-10-23T01:19:31.202Z,1008.60
2017-10-23T01:20:31.201Z,1008.55
2017-10-23T01:21:31.201Z,1008.54
2017-10-23T01:22:31.205Z,1008.54
2017-10-23T01:23:31.204Z,1008.55
2017-10-23T01:24:31.205Z,1008.55
2017-10-23T01:25:31.210Z,1008.57
2017-10-23T01:26:31.212Z,1008.58
2017-10-23T01:27:31.218Z,1008.53
2017-10-23T01:28:31.209Z,1008.55
2017-10-23T01:29:31.210Z,1008.58
2017-10-23T01:30:31.212Z,1008.54
2017-10-23T01:31:31.216Z,1008.55
2017-10-23T01:32:31.214Z,1008.52
2017-10-23T01:33:31.218Z,1008.53
2017-10-23T01:34:31.220Z,1008.51
2017-10-23T01:35:31.218Z,1008.52
2017-10-23T01:36:31.218Z,1008.49
2017-10-23T01:37:31.223Z,1008.52
2017-10-23T01:38:31.219Z,1008.47
2017-10-23T01:39:31.223Z,1008.49
2017-10-23T01:40:31.224Z,1008.48
2017-10-23T01:41:31.223Z,1008.47
2017-10-23T01:42:31.224Z,1008.51
2017-10-23T01:43:31.228Z,1008.54
2017-10-23T01:44:31.227Z,1008.51
2017-10-23T01:45:31.229Z,1008.48
2017-10-23T01:46:31.230Z,1008.45
2017-10-23T01:47:31.228Z,1008.46
2017-10-23T01:48:31.235Z,1008.46
2017-10-23T01:49:31.235Z,1008.44
2017-10-23T01:50:31.237Z,1008.44
2017-10-23T01:51:31.236Z,1008.45
2017-10-23T01:52:31.237Z,1008.39
2017-10-23T01:53:31.246Z,1008.41
2017-10-23T01:54:31.251Z,1008.44
2017-10-23T01:55:31.246Z,1008.44
2017-10-23T01:56:31.249Z,1008.41
2017-10-23T01:57:31.248Z,1008.39
2017-10-23T01:58:31.254Z,1008.41
2017-10-23T01:59:31.252Z,1008.40
2017-10-23T02:00:31.249Z,1008.43
2017-10-23T02:01:31.248Z,1008.44
2017-10-23T02:02:31.252Z,1008.45
2017-10-23T02:03:31.256Z,1008.41
2017-10-23T02:04:31.251Z,1008.45
2017-10-23T02:05:31.254Z,1008.42
2017-10-23T02:06:31.255Z,1008.45
2017-10-23T02:07:31.256Z,1008.42
2017-10-23T02:08:31.261Z,1008.46
2017-10-23T02:09:31.270Z,1008.46
2017-10-23T02:10:31.259Z,1008.47
2017-10-23T02:11:31.263Z,1008.48
2017-10-23T02:12:31.261Z,1008.44
2017-10-23T02:13:31.265Z,1008.48
2017-10-23T02:14:31.264Z,1008.44
2017-10-23T02:15:31.271Z,1008.49
2017-10-23T02:16:31.272Z,1008.47
2017-10-23T02:17:31.270Z,1008.47
2017-10-23T02:18:31.272Z,1008.49
2017-10-23T02:19:31.276Z,1008.50
2017-10-23T02:20:31.273Z,1008.48
2017-10-23T02:21:31.273Z,1008.45
2017-10-23T02:22:31.274Z,1008.48
2017-10-23T02:23:31.280Z,1008.49
2017-10-23T02:24:31.280Z,1008.47
2017-10-23T02:25:31.304Z,1008.48
2017-10-23T02:26:31.278Z,1008.46
2017-10-23T02:27:31.277Z,1008.51
2017-10-23T02:28:31.280Z,1008.47
2017-10-23T02:29:31.282Z,1008.47
2017-10-23T02:30:31.284Z,1008.44
2017-10-23T02:31:31.284Z,1008.50
2017-10-23T02:32:31.285Z,1008.46
2017-10-23T02:33:31.284Z,1008.45
2017-10-23T02:34:31.283Z,1008.48
2017-10-23T02:35:31.284Z,1008.47
2017-10-23T02:36:31.303Z,1008.48
2017-10-23T02:37:31.294Z,1008.45
2017-10-23T02:38:31.289Z,1008.49
2017-10-23T02:39:31.294Z,1008.46
2017-10-23T02:40:31.295Z,1008.45
2017-10-23T02:41:31.295Z,1008.43
2017-10-23T02:42:31.294Z,1008.47
2017-10-23T02:43:31.295Z,1008.46
2017-10-23T02:44:31.299Z,1008.44
2017-10-23T02:45:31.305Z,1008.50
2017-10-23T02:46:31.303Z,1008.45
2017-10-23T02:47:31.301Z,1008.47
2017-10-23T02:48:31.305Z,1008.47
2017-10-23T02:49:31.306Z,1008.49
2017-10-23T02:50:31.306Z,1008.52
2017-10-23T02:51:31.304Z,1008.52
2017-10-23T02:52:31.311Z,1008.50
2017-10-23T02:53:31.304Z,1008.50
2017-10-23T02:54:31.308Z,1008.53
2017-10-23T02:55:31.309Z,1008.50
2017-10-23T02:56:31.310Z,1008.56
2017-10-23T02:57:31.339Z,1008.54
2017-10-23T02:58:31.311Z,1008.52
2017-10-23T02:59:31.310Z,1008.58
2017-10-23T03:00:31.314Z,1008.58
2017-10-23T03:01:31.315Z,1008.57
2017-10-23T03:02:31.320Z,1008.56
2017-10-23T03:03:31.319Z,1008.61
2017-10-23T03:04:31.322Z,1008.57
2017-10-23T03:05:31.321Z,1008.58
2017-10-23T03:06:31.321Z,1008.59
2017-10-23T03:07:31.319Z,1008.57
2017-10-23T03:08:31.324Z,1008.56
2017-10-23T03:09:31.325Z,1008.52
2017-10-23T03:10:31.323Z,1008.52
2017-10-23T03:11:31.321Z,1008.49
2017-10-23T03:12:31.336Z,1008.48
2017-10-23T03:13:31.336Z,1008.49
2017-10-23T03:14:31.329Z,1008.49
2017-10-23T03:15:31.330Z,1008.47
2017-10-23T03:16:31.334Z,1008.50
2017-10-23T03:17:31.332Z,1008.54
2017-10-23T03:18:31.329Z,1008.51
2017-10-23T03:19:31.336Z,1008.52
2017-10-23T03:20:31.334Z,1008.58
2017-10-23T03:21:31.337Z,1008.56
2017-10-23T03:22:31.341Z,1008.58
2017-10-23T03:23:31.355Z,1008.58
2017-10-23T03:24:31.338Z,1008.60
2017-10-23T03:25:31.338Z,1008.58
2017-10-23T03:26:31.347Z,1008.59
2017-10-23T03:27:31.346Z,1008.53
2017-10-23T03:28:31.344Z,1008.53
2017-10-23T03:29:31.344Z,1008.55
2017-10-23T03:30:31.344Z,1008.59
2017-10-23T03:31:31.346Z,1008.56
2017-10-23T03:32:31.346Z,1008.56
2017-10-23T03:33:31.356Z,1008.53
2017-10-23T03:34:31.346Z,1008.52
2017-10-23T03:35:31.355Z,1008.55
2017-10-23T03:36:31.359Z,1008.54
2017-10-23T03:37:31.353Z,1008.55
2017-10-23T03:38:31.368Z,1008.57
2017-10-23T03:39:31.354Z,1008.55
2017-10-23T03:40:31.362Z,1008.57
2017-10-23T03:41:31.372Z,1008.57
2017-10-23T03:42:31.364Z,1008.57
2017-10-23T03:43:31.364Z,1008.56
2017-10-23T03:44:31.387Z,1008.59
2017-10-23T03:45:31.363Z,1008.55
2017-10-23T03:46:31.363Z,1008.56
2017-10-23T03:47:31.368Z,1008.57
2017-10-23T03:48:31.364Z,1008.58
2017-10-23T03:49:31.377Z,1008.57
2017-10-23T03:50:31.373Z,1008.59
2017-10-23T03:51:31.371Z,1008.58
2017-10-23T03:52:31.373Z,1008.60
2017-10-23T03:53:31.372Z,1008.60
2017-10-23T03:54:31.371Z,1008.64
2017-10-23T03:55:31.374Z,1008.59
2017-10-23T03:56:31.380Z,1008.58
2017-10-23T03:57:31.378Z,1008.59
2017-10-23T03:58:31.382Z,1008.55
2017-10-23T03:59:31.385Z,1008.60
2017-10-23T04:00:31.381Z,1008.59
2017-10-23T04:01:31.386Z,1008.59
2017-10-23T04:02:31.481Z,1008.63
2017-10-23T04:03:31.387Z,1008.63
2017-10-23T04:04:31.388Z,1008.65
2017-10-23T04:05:31.391Z,1008.62
2017-10-23T04:06:31.390Z,1008.60
2017-10-23T04:07:31.390Z,1008.62
2017-10-23T04:08:31.389Z,1008.59
2017-10-23T04:09:31.388Z,1008.62
2017-10-23T04:10:31.396Z,1008.63
2017-10-23T04:11:31.397Z,1008.58
2017-10-23T04:12:31.422Z,1008.60
2017-10-23T04:13:31.394Z,1008.59
2017-10-23T04:14:31.398Z,1008.54
2017-10-23T04:15:31.398Z,1008.54
2017-10-23T04:16:31.396Z,1008.58
2017-10-23T04:17:31.404Z,1008.59
2017-10-23T04:18:31.404Z,1008.56
2017-10-23T04:19:31.404Z,1008.57
2017-10-23T04:20:31.404Z,1008.56
2017-10-23T04:21:31.406Z,1008.58
2017-10-23T04:22:31.405Z,1008.58
2017-10-23T04:23:31.409Z,1008.59
2017-10-23T04:24:31.412Z,1008.57
2017-10-23T04:25:31.417Z,1008.62
2017-10-23T04:26:31.415Z,1008.62
2017-10-23T04:27:31.411Z,1008.60
2017-10-23T04:28:31.464Z,1008.64
2017-10-23T04:29:31.419Z,1008.61
2017-10-23T04:30:31.420Z,1008.63
2017-10-23T04:31:31.414Z,1008.64
2017-10-23T04:32:31.414Z,1008.63
2017-10-23T04:33:31.429Z,1008.65
2017-10-23T04:34:31.417Z,1008.64
2017-10-23T04:35:31.419Z,1008.64
2017-10-23T04:36:31.424Z,1008.65
2017-10-23T04:37:31.425Z,1008.63
2017-10-23T04:38:31.423Z,1008.68
2017-10-23T04:39:31.424Z,1008.67
2017-10-23T04:40:31.430Z,1008.70
2017-10-23T04:41:31.432Z,1008.67
2017-10-23T04:42:31.432Z,1008.70
2017-10-23T04:43:31.430Z,1008.67
2017-10-23T04:44:31.434Z,1008.69
2017-10-23T04:45:31.443Z,1008.67
2017-10-23T04:46:31.433Z,1008.65
2017-10-23T04:47:31.439Z,1008.72
2017-10-23T04:48:31.452Z,1008.69
2017-10-23T04:49:31.441Z,1008.67
2017-10-23T04:50:31.441Z,1008.65
2017-10-23T04:51:31.443Z,1008.66
2017-10-23T04:52:31.451Z,1008.62
2017-10-23T04:53:31.446Z,1008.63
2017-10-23T04:54:31.443Z,1008.65
2017-10-23T04:55:31.451Z,1008.67
2017-10-23T04:56:31.447Z,1008.65
2017-10-23T04:57:31.448Z,1008.69
2017-10-23T04:58:31.450Z,1008.67
2017-10-23T04:59:31.454Z,1008.67
2017-10-23T05:00:31.454Z,1008.65
2017-10-23T05:01:31.454Z,1008.67
2017-10-23T05:02:31.456Z,1008.68
2017-10-23T05:03:31.456Z,1008.70
2017-10-23T05:04:31.456Z,1008.70
2017-10-23T05:05:31.467Z,1008.65
2017-10-23T05:06:31.470Z,1008.70
2017-10-23T05:07:31.463Z,1008.69
2017-10-23T05:08:31.465Z,1008.69
2017-10-23T05:09:31.464Z,1008.74
2017-10-23T05:10:31.469Z,1008.72
2017-10-23T05:11:31.465Z,1008.70
2017-10-23T05:12:31.469Z,1008.73
2017-10-23T05:13:31.467Z,1008.73
2017-10-23T05:14:31.483Z,1008.70
2017-10-23T05:15:31.474Z,1008.74
2017-10-23T05:16:31.474Z,1008.73
2017-10-23T05:17:31.472Z,1008.77
2017-10-23T05:18:31.475Z,1008.81
2017-10-23T05:19:31.482Z,1008.76
2017-10-23T05:20:31.485Z,1008.75
2017-10-23T05:21:31.484Z,1008.81
2017-10-23T05:22:33.115Z,1008.82
2017-10-23T05:23:31.488Z,1008.82
2017-10-23T05:24:31.482Z,1008.79
2017-10-23T05:25:31.486Z,1008.79
2017-10-23T05:26:31.485Z,1008.78
2017-10-23T05:27:31.491Z,1008.79
2017-10-23T05:28:31.488Z,1008.79
2017-10-23T05:29:31.493Z,1008.76
2017-10-23T05:30:31.491Z,1008.84
2017-10-23T05:31:31.492Z,1008.87
2017-10-23T05:32:31.493Z,1008.85
2017-10-23T05:33:31.500Z,1008.81
2017-10-23T05:34:31.500Z,1008.82
2017-10-23T05:35:31.522Z,1008.88
2017-10-23T05:36:31.501Z,1008.88
2017-10-23T05:37:31.501Z,1008.87
2017-10-23T05:38:31.509Z,1008.85
2017-10-23T05:39:31.504Z,1008.90
2017-10-23T05:40:31.504Z,1008.92
2017-10-23T05:41:31.517Z,1008.91
2017-10-23T05:42:31.502Z,1008.88
2017-10-23T05:43:31.509Z,1008.90
2017-10-23T05:44:31.514Z,1008.91
2017-10-23T05:45:31.520Z,1008.91
2017-10-23T05:46:31.516Z,1008.92
2017-10-23T05:47:31.513Z,1008.92
2017-10-23T05:48:31.513Z,1008.94
2017-10-23T05:49:31.518Z,1008.97
2017-10-23T05:50:31.522Z,1008.98
2017-10-23T05:51:31.525Z,1008.98
2017-10-23T05:52:31.525Z,1009.00
2017-10-23T05:53:31.527Z,1009.00
2017-10-23T05:54:31.526Z,1009.02
2017-10-23T05:55:31.524Z,1009.01
2017-10-23T05:56:31.528Z,1008.97
2017-10-23T05:57:31.529Z,1008.95
2017-10-23T05:58:31.529Z,1008.95
2017-10-23T05:59:31.529Z,1008.93
2017-10-23T06:00:31.529Z,1008.96
2017-10-23T06:01:31.534Z,1009.00
2017-10-23T06:02:31.537Z,1008.98
2017-10-23T06:03:31.534Z,1008.98
2017-10-23T06:04:31.549Z,1009.00
2017-10-23T06:05:31.538Z,1009.02
2017-10-23T06:06:31.540Z,1009.02
2017-10-23T06:07:31.558Z,1009.03
2017-10-23T06:08:31.588Z,1009.05
2017-10-23T06:09:31.551Z,1009.03
2017-10-23T06:10:31.552Z,1009.00
2017-10-23T06:11:31.558Z,1009.01
2017-10-23T06:12:31.556Z,1009.01
2017-10-23T06:13:31.550Z,1009.04
2017-10-23T06:14:31.554Z,1009.01
2017-10-23T06:15:31.554Z,1009.08
2017-10-23T06:16:31.566Z,1009.05
2017-10-23T06:17:31.556Z,1009.05
2017-10-23T06:18:31.556Z,1009.05
2017-10-23T06:19:31.572Z,1009.06
2017-10-23T06:20:31.561Z,1009.08
2017-10-23T06:21:31.565Z,1009.09
2017-10-23T06:22:31.564Z,1009.10
2017-10-23T06:23:31.566Z,1009.11
2017-10-23T06:24:31.565Z,1009.13
2017-10-23T06:25:31.569Z,1009.13
2017-10-23T06:26:31.575Z,1009.10
2017-10-23T06:27:31.566Z,1009.15
2017-10-23T06:28:31.574Z,1009.10
2017-10-23T06:29:31.574Z,1009.10
2017-10-23T06:30:31.576Z,1009.13
2017-10-23T06:31:31.581Z,1009.12
2017-10-23T06:32:31.575Z,1009.17
2017-10-23T06:33:31.586Z,1009.14
2017-10-23T06:34:31.586Z,1009.16
2017-10-23T06:35:31.585Z,1009.14
2017-10-23T06:36:31.583Z,1009.16
2017-10-23T06:37:31.585Z,1009.17
2017-10-23T06:38:31.585Z,1009.18
2017-10-23T06:39:31.586Z,1009.20
2017-10-23T06:40:31.591Z,1009.17
2017-10-23T06:41:31.588Z,1009.20
2017-10-23T06:42:31.592Z,1009.19
2017-10-23T06:43:31.592Z,1009.23
2017-10-23T06:44:31.594Z,1009.20
2017-10-23T06:45:31.596Z,1009.19
2017-10-23T06:46:31.602Z,1009.19
2017-10-23T06:47:31.596Z,1009.19
2017-10-23T06:48:31.601Z,1009.20
2017-10-23T06:49:31.600Z,1009.21
2017-10-23T06:50:31.610Z,1009.21
2017-10-23T06:51:31.610Z,1009.21
2017-10-23T06:52:31.604Z,1009.21
2017-10-23T06:53:31.606Z,1009.25
2017-10-23T06:54:31.612Z,1009.23
2017-10-23T06:55:31.609Z,1009.24
2017-10-23T06:56:31.621Z,1009.26
2017-10-23T06:57:31.614Z,1009.29
2017-10-23T06:58:31.633Z,1009.31
2017-10-23T06:59:31.627Z,1009.29
2017-10-23T07:00:31.631Z,1009.32
2017-10-23T07:01:31.618Z,1009.29
2017-10-23T07:02:31.618Z,1009.38
2017-10-23T07:03:31.624Z,1009.31
2017-10-23T07:04:31.625Z,1009.33
2017-10-23T07:05:31.625Z,1009.36
2017-10-23T07:06:31.624Z,1009.36
2017-10-23T07:07:31.630Z,1009.38
2017-10-23T07:08:31.629Z,1009.37
2017-10-23T07:09:31.634Z,1009.40
2017-10-23T07:10:31.634Z,1009.38
2017-10-23T07:11:31.634Z,1009.41
2017-10-23T07:12:31.644Z,1009.45
2017-10-23T07:13:31.642Z,1009.40
2017-10-23T07:14:31.635Z,1009.46
2017-10-23T07:15:31.641Z,1009.44
2017-10-23T07:16:31.642Z,1009.48
2017-10-23T07:17:31.645Z,1009.48
2017-10-23T07:18:31.645Z,1009.48
2017-10-23T07:19:31.722Z,1009.48
2017-10-23T07:20:31.649Z,1009.48
2017-10-23T07:21:31.652Z,1009.48
2017-10-23T07:22:31.651Z,1009.48
2017-10-23T07:23:31.651Z,1009.49
2017-10-23T07:24:31.650Z,1009.47
2017-10-23T07:25:31.681Z,1009.46
2017-10-23T07:28:03.930Z,1009.47
2017-10-23T07:29:03.739Z,1009.48
2017-10-23T07:30:03.739Z,1009.52
2017-10-23T07:31:03.739Z,1009.49
2017-10-23T07:32:03.741Z,1009.50
2017-10-23T07:33:03.761Z,1009.54
2017-10-23T07:35:04.218Z,1009.51
2017-10-23T07:36:03.749Z,1009.50
2017-10-23T07:37:03.747Z,1009.51
2017-10-23T07:38:03.748Z,1009.50
2017-10-23T07:39:03.756Z,1009.47
2017-10-23T07:40:03.750Z,1009.49
2017-10-23T07:41:03.757Z,1009.50
2017-10-23T07:42:03.756Z,1009.49
2017-10-23T07:43:03.757Z,1009.47
2017-10-23T07:44:03.759Z,1009.48
2017-10-23T07:45:03.766Z,1009.50
2017-10-23T07:46:03.769Z,1009.50
2017-10-23T07:47:03.767Z,1009.50
2017-10-23T07:48:03.767Z,1009.50
2017-10-23T07:49:03.772Z,1009.49
2017-10-23T07:50:03.768Z,1009.47
2017-10-23T07:51:03.771Z,1009.50
2017-10-23T07:52:03.773Z,1009.51
2017-10-23T07:53:03.777Z,1009.48
2017-10-23T07:54:03.780Z,1009.52
2017-10-23T07:55:03.788Z,1009.51
2017-10-23T07:56:03.778Z,1009.52
2017-10-23T07:57:03.778Z,1009.55
2017-10-23T07:58:03.779Z,1009.57
2017-10-23T07:59:03.788Z,1009.55
2017-10-23T08:00:03.787Z,1009.58
2017-10-23T08:01:03.794Z,1009.57
2017-10-23T08:02:03.792Z,1009.59
2017-10-23T08:03:03.790Z,1009.61
2017-10-23T08:04:03.797Z,1009.57
2017-10-23T08:05:03.794Z,1009.62
2017-10-23T08:06:03.827Z,1009.65
2017-10-23T08:07:03.798Z,1009.66
2017-10-23T08:08:03.801Z,1009.63
2017-10-23T08:09:03.802Z,1009.62
2017-10-23T08:10:03.805Z,1009.64
2017-10-23T08:11:03.810Z,1009.67
2017-10-23T08:12:03.812Z,1009.66
2017-10-23T08:13:03.808Z,1009.69
2017-10-23T08:14:03.816Z,1009.68
2017-10-23T08:15:03.815Z,1009.72
2017-10-23T08:16:03.836Z,1009.70
2017-10-23T08:17:03.814Z,1009.70
2017-10-23T08:18:03.846Z,1009.77
2017-10-23T08:19:03.820Z,1009.76
2017-10-23T08:20:03.825Z,1009.74
2017-10-23T08:21:03.824Z,1009.74
2017-10-23T08:22:03.827Z,1009.75
2017-10-23T08:23:03.827Z,1009.74
2017-10-23T08:24:03.827Z,1009.74
2017-10-23T08:25:03.831Z,1009.75
2017-10-23T08:26:03.847Z,1009.76
2017-10-23T08:27:03.842Z,1009.72
2017-10-23T08:28:03.836Z,1009.71
2017-10-23T08:29:03.848Z,1009.75
2017-10-23T08:30:03.838Z,1009.75
2017-10-23T08:31:03.842Z,1009.75
2017-10-23T08:32:03.841Z,1009.73
2017-10-23T08:33:03.845Z,1009.82
2017-10-23T08:34:03.851Z,1009.76
2017-10-23T08:35:03.851Z,1009.78
2017-10-23T08:36:03.851Z,1009.82
2017-10-23T08:37:03.856Z,1009.79
2017-10-23T08:38:03.855Z,1009.79
2017-10-23T08:39:03.858Z,1009.82
2017-10-23T08:40:03.870Z,1009.83
2017-10-23T08:41:03.859Z,1009.87
2017-10-23T08:42:03.864Z,1009.85
2017-10-23T08:43:03.898Z,1009.85
2017-10-23T08:44:03.867Z,1009.87
2017-10-23T08:45:03.871Z,1009.90
2017-10-23T08:46:03.868Z,1009.86
2017-10-23T08:47:03.871Z,1009.83
2017-10-23T08:48:03.877Z,1009.88
2017-10-23T08:49:03.874Z,1009.84
2017-10-23T08:50:03.881Z,1009.85
2017-10-23T08:51:03.878Z,1009.83
2017-10-23T08:52:03.891Z,1009.82
2017-10-23T08:53:03.881Z,1009.83
2017-10-23T08:54:03.886Z,1009.82
2017-10-23T08:55:03.886Z,1009.83
2017-10-23T08:56:04.815Z,1009.85
2017-10-23T08:57:03.898Z,1009.84
2017-10-23T08:58:04.175Z,1009.87
2017-10-23T08:59:03.897Z,1009.87
2017-10-23T09:00:03.897Z,1009.86
2017-10-23T09:01:03.909Z,1009.92
2017-10-23T09:02:03.983Z,1009.90
2017-10-23T09:03:03.921Z,1009.88
2017-10-23T09:04:03.928Z,1009.86
2017-10-23T09:05:03.907Z,1009.89
2017-10-23T09:06:03.911Z,1009.90
2017-10-23T09:07:03.913Z,1009.93
2017-10-23T09:08:03.914Z,1009.89
2017-10-23T09:09:03.913Z,1009.88
2017-10-23T09:10:03.917Z,1009.93
2017-10-23T09:11:03.922Z,1009.93
2017-10-23T09:12:03.923Z,1009.94
2017-10-23T09:13:03.920Z,1009.98
2017-10-23T09:14:03.926Z,1009.98
2017-10-23T09:15:03.931Z,1009.99
2017-10-23T09:16:03.931Z,1010.01
2017-10-23T09:17:03.932Z,1010.03
2017-10-23T09:18:03.942Z,1009.94
2017-10-23T09:19:03.949Z,1010.00
2017-10-23T09:20:03.942Z,1010.04
2017-10-23T09:21:03.941Z,1010.02
2017-10-23T09:22:03.942Z,1010.01
2017-10-23T09:23:03.949Z,1010.05
2017-10-23T09:24:03.948Z,1010.09
2017-10-23T09:25:03.949Z,1010.06
2017-10-23T09:26:03.952Z,1010.04
2017-10-23T09:27:03.964Z,1010.04
2017-10-23T09:28:03.953Z,1010.08
2017-10-23T09:29:03.975Z,1010.11
2017-10-23T09:30:03.961Z,1010.08
2017-10-23T09:31:03.969Z,1010.11
2017-10-23T09:32:03.973Z,1010.09
2017-10-23T09:33:03.965Z,1010.09
2017-10-23T09:34:03.965Z,1010.09
2017-10-23T09:35:03.970Z,1010.08
2017-10-23T09:36:03.993Z,1010.15
2017-10-23T09:37:03.981Z,1010.12
2017-10-23T09:38:03.984Z,1010.12
2017-10-23T09:39:03.977Z,1010.19
2017-10-23T09:40:03.983Z,1010.17
2017-10-23T09:41:03.991Z,1010.20
2017-10-23T09:42:03.982Z,1010.21
2017-10-23T09:43:03.988Z,1010.16
2017-10-23T09:44:03.988Z,1010.19
2017-10-23T09:45:03.989Z,1010.23
2017-10-23T09:46:03.993Z,1010.25
2017-10-23T09:47:03.994Z,1010.24
2017-10-23T09:48:03.995Z,1010.25
2017-10-23T09:49:04.000Z,1010.25
2017-10-23T09:50:04.014Z,1010.24
2017-10-23T09:51:04.004Z,1010.25
2017-10-23T09:52:04.006Z,1010.29
2017-10-23T09:53:04.004Z,1010.25
2017-10-23T09:54:04.009Z,1010.28
2017-10-23T09:55:04.013Z,1010.30
2017-10-23T09:56:04.011Z,1010.31
2017-10-23T09:57:04.013Z,1010.30
2017-10-23T09:58:04.020Z,1010.33
2017-10-23T09:59:04.019Z,1010.30
2017-10-23T10:00:04.024Z,1010.35
2017-10-23T10:01:04.074Z,1010.33
2017-10-23T10:02:04.032Z,1010.34
2017-10-23T10:03:04.031Z,1010.39
2017-10-23T10:04:04.031Z,1010.40
2017-10-23T10:05:04.032Z,1010.37
2017-10-23T10:06:04.034Z,1010.37
2017-10-23T10:07:04.039Z,1010.46
2017-10-23T10:08:04.041Z,1010.43
2017-10-23T10:09:04.039Z,1010.41
2017-10-23T10:10:04.042Z,1010.42
2017-10-23T10:11:04.051Z,1010.45
2017-10-23T10:12:04.046Z,1010.47
2017-10-23T10:13:04.050Z,1010.48
2017-10-23T10:14:04.049Z,1010.49
2017-10-23T10:15:04.092Z,1010.51
2017-10-23T10:16:04.057Z,1010.47
2017-10-23T10:17:04.062Z,1010.49
2017-10-23T10:18:04.061Z,1010.48
2017-10-23T10:19:04.060Z,1010.46
2017-10-23T10:20:04.065Z,1010.52
2017-10-23T10:21:04.070Z,1010.54
2017-10-23T10:22:04.072Z,1010.52
2017-10-23T10:23:04.068Z,1010.52
2017-10-23T10:24:04.086Z,1010.57
2017-10-23T10:25:04.076Z,1010.56
2017-10-23T10:26:04.078Z,1010.53
2017-10-23T10:27:04.083Z,1010.58
2017-10-23T10:28:04.083Z,1010.55
2017-10-23T10:29:04.083Z,1010.57
2017-10-23T10:30:04.116Z,1010.54
2017-10-23T10:31:04.172Z,1010.53
2017-10-23T10:32:04.672Z,1010.55
2017-10-23T10:33:04.924Z,1010.57
2017-10-23T10:34:04.099Z,1010.60
2017-10-23T10:35:04.105Z,1010.61
2017-10-23T10:36:04.116Z,1010.62
2017-10-23T10:37:04.103Z,1010.58
2017-10-23T10:38:04.223Z,1010.59
2017-10-23T10:39:04.113Z,1010.59
2017-10-23T10:40:04.112Z,1010.60
2017-10-23T10:41:04.113Z,1010.59
2017-10-23T10:42:04.113Z,1010.63
2017-10-23T10:43:04.115Z,1010.61
2017-10-23T10:44:04.121Z,1010.63
2017-10-23T10:45:04.119Z,1010.65
2017-10-23T10:46:04.120Z,1010.67
2017-10-23T10:47:04.121Z,1010.65
2017-10-23T10:48:04.126Z,1010.65
2017-10-23T10:49:04.130Z,1010.68
2017-10-23T10:50:04.131Z,1010.69
2017-10-23T10:51:04.134Z,1010.75
2017-10-23T10:52:04.147Z,1010.67
2017-10-23T10:53:04.143Z,1010.69
2017-10-23T10:54:04.141Z,1010.65
2017-10-23T10:55:04.144Z,1010.68
2017-10-23T10:56:04.144Z,1010.71
2017-10-23T10:57:04.149Z,1010.70
2017-10-23T10:58:04.156Z,1010.71
2017-10-23T10:59:04.152Z,1010.69
2017-10-23T11:00:04.153Z,1010.74
2017-10-23T11:01:04.158Z,1010.73
2017-10-23T11:02:04.165Z,1010.70
2017-10-23T11:03:04.162Z,1010.73
2017-10-23T11:04:04.168Z,1010.75
2017-10-23T11:05:04.167Z,1010.76
2017-10-23T11:06:04.168Z,1010.79
2017-10-23T11:07:04.180Z,1010.80
2017-10-23T11:08:04.173Z,1010.79
2017-10-23T11:09:04.178Z,1010.82
2017-10-23T11:10:04.185Z,1010.79
2017-10-23T11:11:04.185Z,1010.80
2017-10-23T11:12:04.185Z,1010.81
2017-10-23T11:13:04.185Z,1010.85
2017-10-23T11:14:04.193Z,1010.80
2017-10-23T11:15:04.191Z,1010.80
2017-10-23T11:16:04.192Z,1010.82
2017-10-23T11:17:04.202Z,1010.88
2017-10-23T11:18:04.198Z,1010.86
2017-10-23T11:19:04.215Z,1010.86
2017-10-23T11:20:04.205Z,1010.86
2017-10-23T11:21:04.205Z,1010.84
2017-10-23T11:22:04.216Z,1010.90
2017-10-23T11:23:04.221Z,1010.88
2017-10-23T11:24:04.215Z,1010.82
2017-10-23T11:25:04.216Z,1010.82
2017-10-23T11:26:04.219Z,1010.84
2017-10-23T11:27:04.220Z,1010.82
2017-10-23T11:28:04.231Z,1010.82
2017-10-23T11:29:04.223Z,1010.85
2017-10-23T11:30:04.229Z,1010.82
2017-10-23T11:31:04.229Z,1010.83
2017-10-23T11:32:04.234Z,1010.84
2017-10-23T11:33:04.232Z,1010.83
2017-10-23T11:34:04.236Z,1010.88
2017-10-23T11:35:04.242Z,1010.82
2017-10-23T11:36:04.243Z,1010.88
2017-10-23T11:37:04.246Z,1010.88
2017-10-23T11:38:04.251Z,1010.88
2017-10-23T11:39:04.254Z,1010.91
2017-10-23T11:40:04.256Z,1010.86
2017-10-23T11:41:04.257Z,1010.91
2017-10-23T11:42:04.266Z,1010.90
2017-10-23T11:43:04.266Z,1010.89
2017-10-23T11:44:04.271Z,1010.85
2017-10-23T11:45:04.262Z,1010.88
2017-10-23T11:46:04.277Z,1010.88
2017-10-23T11:47:04.278Z,1010.93
2017-10-23T11:48:04.276Z,1010.95
2017-10-23T11:49:04.292Z,1010.92
2017-10-23T11:50:04.283Z,1010.97
2017-10-23T11:51:04.283Z,1010.96
2017-10-23T11:52:04.285Z,1010.98
2017-10-23T11:53:04.285Z,1010.96
2017-10-23T11:54:04.296Z,1011.03
2017-10-23T11:55:04.297Z,1011.00
2017-10-23T11:56:04.294Z,1010.97
2017-10-23T11:57:04.292Z,1010.96
2017-10-23T11:58:04.298Z,1011.05
2017-10-23T11:59:04.299Z,1011.00
2017-10-23T12:00:04.305Z,1011.04
2017-10-23T12:01:04.304Z,1011.02
2017-10-23T12:02:04.308Z,1011.06
2017-10-23T12:03:04.313Z,1011.06
2017-10-23T12:04:04.313Z,1011.05
2017-10-23T12:05:04.317Z,1011.08
2017-10-23T12:06:04.316Z,1011.07
2017-10-23T12:07:04.324Z,1011.04
2017-10-23T12:08:04.341Z,1011.09